sensor_id;sensor_type;location;lat;lon;timestamp;P1;durP1;ratioP1;P2;durP2;ratioP2
22963;SDS011;11648;49.306;6.934;2023-06-04T00:01:59;3.93;;;1.10;;
22963;SDS011;11648;49.306;6.934;2023-06-04T00:04:25;4.60;;;1.20;;
22963;SDS011;11648;49.306;6.934;2023-06-04T00:06:53;3.80;;;0.90;;
22963;SDS011;11648;49.306;6.934;2023-06-04T00:09:20;2.30;;;1.23;;
22963;SDS011;11648;49.306;6.934;2023-06-04T00:11:47;3.40;;;1.20;;
22963;SDS011;11648;49.306;6.934;2023-06-04T00:14:14;2.80;;;1.23;;
22963;SDS011;11648;49.306;6.934;2023-06-04T00:16:44;3.07;;;1.40;;
22963;SDS011;11648;49.306;6.934;2023-06-04T00:19:11;2.97;;;1.30;;
22963;SDS011;11648;49.306;6.934;2023-06-04T00:21:38;6.00;;;1.40;;
22963;SDS011;11648;49.306;6.934;2023-06-04T00:24:05;2.57;;;1.20;;
22963;SDS011;11648;49.306;6.934;2023-06-04T00:26:32;3.23;;;1.30;;
22963;SDS011;11648;49.306;6.934;2023-06-04T00:29:00;2.77;;;1.20;;
22963;SDS011;11648;49.306;6.934;2023-06-04T00:31:27;2.87;;;1.30;;
22963;SDS011;11648;49.306;6.934;2023-06-04T00:33:54;3.37;;;1.30;;
22963;SDS011;11648;49.306;6.934;2023-06-04T00:36:21;3.90;;;1.23;;
22963;SDS011;11648;49.306;6.934;2023-06-04T00:38:48;3.80;;;1.20;;
22963;SDS011;11648;49.306;6.934;2023-06-04T00:41:14;4.83;;;1.30;;
22963;SDS011;11648;49.306;6.934;2023-06-04T00:43:41;2.80;;;1.10;;
22963;SDS011;11648;49.306;6.934;2023-06-04T00:46:12;3.00;;;1.13;;
22963;SDS011;11648;49.306;6.934;2023-06-04T00:48:45;3.20;;;1.10;;
22963;SDS011;11648;49.306;6.934;2023-06-04T00:51:11;4.13;;;1.20;;
22963;SDS011;11648;49.306;6.934;2023-06-04T00:53:39;4.07;;;1.10;;
22963;SDS011;11648;49.306;6.934;2023-06-04T00:56:06;2.53;;;1.23;;
22963;SDS011;11648;49.306;6.934;2023-06-04T00:58:37;2.60;;;1.20;;
22963;SDS011;11648;49.306;6.934;2023-06-04T01:01:07;4.10;;;1.10;;
22963;SDS011;11648;49.306;6.934;2023-06-04T01:03:42;3.43;;;1.30;;
22963;SDS011;11648;49.306;6.934;2023-06-04T01:06:21;4.33;;;1.17;;
22963;SDS011;11648;49.306;6.934;2023-06-04T01:08:50;3.87;;;1.20;;
22963;SDS011;11648;49.306;6.934;2023-06-04T01:11:30;2.60;;;1.27;;
22963;SDS011;11648;49.306;6.934;2023-06-04T01:14:05;5.00;;;1.40;;
22963;SDS011;11648;49.306;6.934;2023-06-04T01:16:43;4.07;;;1.20;;
22963;SDS011;11648;49.306;6.934;2023-06-04T01:22:08;2.93;;;0.90;;
22963;SDS011;11648;49.306;6.934;2023-06-04T01:24:38;2.90;;;1.03;;
22963;SDS011;11648;49.306;6.934;2023-06-04T01:27:08;2.37;;;1.10;;
22963;SDS011;11648;49.306;6.934;2023-06-04T01:29:35;5.53;;;1.20;;
22963;SDS011;11648;49.306;6.934;2023-06-04T01:32:03;2.87;;;1.00;;
22963;SDS011;11648;49.306;6.934;2023-06-04T01:34:31;2.83;;;1.20;;
22963;SDS011;11648;49.306;6.934;2023-06-04T01:37:10;2.83;;;1.07;;
22963;SDS011;11648;49.306;6.934;2023-06-04T01:39:38;3.93;;;1.20;;
22963;SDS011;11648;49.306;6.934;2023-06-04T01:42:05;3.20;;;1.10;;
22963;SDS011;11648;49.306;6.934;2023-06-04T01:44:32;3.03;;;1.30;;
22963;SDS011;11648;49.306;6.934;2023-06-04T01:47:00;3.80;;;1.27;;
22963;SDS011;11648;49.306;6.934;2023-06-04T01:49:27;2.10;;;1.00;;
22963;SDS011;11648;49.306;6.934;2023-06-04T01:51:53;2.20;;;1.10;;
22963;SDS011;11648;49.306;6.934;2023-06-04T01:54:22;3.90;;;1.03;;
22963;SDS011;11648;49.306;6.934;2023-06-04T01:56:49;4.63;;;1.10;;
22963;SDS011;11648;49.306;6.934;2023-06-04T01:59:16;3.23;;;1.00;;
22963;SDS011;11648;49.306;6.934;2023-06-04T02:01:43;3.17;;;1.20;;
22963;SDS011;11648;49.306;6.934;2023-06-04T02:04:10;4.43;;;1.23;;
22963;SDS011;11648;49.306;6.934;2023-06-04T02:06:37;3.13;;;1.13;;
22963;SDS011;11648;49.306;6.934;2023-06-04T02:09:04;4.00;;;1.00;;
22963;SDS011;11648;49.306;6.934;2023-06-04T02:11:30;2.63;;;1.00;;
22963;SDS011;11648;49.306;6.934;2023-06-04T02:13:57;3.17;;;1.10;;
22963;SDS011;11648;49.306;6.934;2023-06-04T02:16:24;3.57;;;1.17;;
22963;SDS011;11648;49.306;6.934;2023-06-04T02:18:51;3.67;;;1.30;;
22963;SDS011;11648;49.306;6.934;2023-06-04T02:21:18;2.33;;;1.10;;
22963;SDS011;11648;49.306;6.934;2023-06-04T02:23:45;4.67;;;1.30;;
22963;SDS011;11648;49.306;6.934;2023-06-04T02:26:12;3.70;;;1.10;;
22963;SDS011;11648;49.306;6.934;2023-06-04T02:28:38;2.10;;;0.90;;
22963;SDS011;11648;49.306;6.934;2023-06-04T02:31:05;2.67;;;1.20;;
22963;SDS011;11648;49.306;6.934;2023-06-04T02:33:32;3.30;;;1.40;;
22963;SDS011;11648;49.306;6.934;2023-06-04T02:35:59;3.77;;;1.10;;
22963;SDS011;11648;49.306;6.934;2023-06-04T02:38:27;3.67;;;1.10;;
22963;SDS011;11648;49.306;6.934;2023-06-04T02:40:54;4.57;;;1.40;;
22963;SDS011;11648;49.306;6.934;2023-06-04T02:43:21;3.97;;;1.10;;
22963;SDS011;11648;49.306;6.934;2023-06-04T02:45:48;2.07;;;0.80;;
22963;SDS011;11648;49.306;6.934;2023-06-04T02:48:15;3.87;;;1.10;;
22963;SDS011;11648;49.306;6.934;2023-06-04T02:50:42;5.00;;;1.47;;
22963;SDS011;11648;49.306;6.934;2023-06-04T02:53:09;3.33;;;1.10;;
22963;SDS011;11648;49.306;6.934;2023-06-04T02:55:36;2.77;;;1.40;;
22963;SDS011;11648;49.306;6.934;2023-06-04T02:58:03;3.20;;;1.30;;
22963;SDS011;11648;49.306;6.934;2023-06-04T03:00:29;2.80;;;1.30;;
22963;SDS011;11648;49.306;6.934;2023-06-04T03:02:57;2.77;;;1.00;;
22963;SDS011;11648;49.306;6.934;2023-06-04T03:05:28;3.60;;;1.10;;
22963;SDS011;11648;49.306;6.934;2023-06-04T03:08:00;4.70;;;1.10;;
22963;SDS011;11648;49.306;6.934;2023-06-04T03:10:29;2.63;;;1.20;;
22963;SDS011;11648;49.306;6.934;2023-06-04T03:12:56;2.37;;;0.90;;
22963;SDS011;11648;49.306;6.934;2023-06-04T03:15:23;2.23;;;1.10;;
22963;SDS011;11648;49.306;6.934;2023-06-04T03:17:50;3.63;;;1.10;;
22963;SDS011;11648;49.306;6.934;2023-06-04T03:20:18;2.07;;;0.90;;
22963;SDS011;11648;49.306;6.934;2023-06-04T03:22:45;2.77;;;1.03;;
22963;SDS011;11648;49.306;6.934;2023-06-04T03:25:12;3.60;;;1.20;;
22963;SDS011;11648;49.306;6.934;2023-06-04T03:27:40;5.63;;;1.10;;
22963;SDS011;11648;49.306;6.934;2023-06-04T03:30:07;2.47;;;0.90;;
22963;SDS011;11648;49.306;6.934;2023-06-04T03:32:55;3.43;;;0.80;;
22963;SDS011;11648;49.306;6.934;2023-06-04T03:35:22;4.53;;;1.10;;
22963;SDS011;11648;49.306;6.934;2023-06-04T03:37:49;4.47;;;1.03;;
22963;SDS011;11648;49.306;6.934;2023-06-04T03:40:16;2.67;;;1.10;;
22963;SDS011;11648;49.306;6.934;2023-06-04T03:42:44;5.30;;;1.30;;
22963;SDS011;11648;49.306;6.934;2023-06-04T03:45:13;6.23;;;1.30;;
22963;SDS011;11648;49.306;6.934;2023-06-04T03:47:40;3.33;;;1.00;;
22963;SDS011;11648;49.306;6.934;2023-06-04T03:50:07;3.93;;;1.10;;
22963;SDS011;11648;49.306;6.934;2023-06-04T03:52:35;4.30;;;1.20;;
22963;SDS011;11648;49.306;6.934;2023-06-04T03:55:03;3.90;;;1.10;;
22963;SDS011;11648;49.306;6.934;2023-06-04T03:57:30;3.03;;;1.13;;
22963;SDS011;11648;49.306;6.934;2023-06-04T04:00:00;5.40;;;0.87;;
22963;SDS011;11648;49.306;6.934;2023-06-04T04:02:27;2.80;;;1.17;;
22963;SDS011;11648;49.306;6.934;2023-06-04T04:04:54;3.20;;;1.07;;
22963;SDS011;11648;49.306;6.934;2023-06-04T04:07:23;2.60;;;1.20;;
22963;SDS011;11648;49.306;6.934;2023-06-04T04:09:51;4.30;;;1.40;;
22963;SDS011;11648;49.306;6.934;2023-06-04T04:12:19;3.27;;;1.17;;
22963;SDS011;11648;49.306;6.934;2023-06-04T04:14:46;2.90;;;1.10;;
22963;SDS011;11648;49.306;6.934;2023-06-04T04:17:14;4.33;;;1.23;;
22963;SDS011;11648;49.306;6.934;2023-06-04T04:19:42;6.43;;;1.20;;
22963;SDS011;11648;49.306;6.934;2023-06-04T04:22:10;2.23;;;0.90;;
22963;SDS011;11648;49.306;6.934;2023-06-04T04:24:37;4.60;;;1.10;;
22963;SDS011;11648;49.306;6.934;2023-06-04T04:27:04;2.60;;;1.03;;
22963;SDS011;11648;49.306;6.934;2023-06-04T04:29:32;3.13;;;0.93;;
22963;SDS011;11648;49.306;6.934;2023-06-04T04:31:59;2.60;;;0.90;;
22963;SDS011;11648;49.306;6.934;2023-06-04T04:34:28;2.57;;;1.07;;
22963;SDS011;11648;49.306;6.934;2023-06-04T04:36:59;5.10;;;1.10;;
22963;SDS011;11648;49.306;6.934;2023-06-04T04:39:26;3.77;;;1.00;;
22963;SDS011;11648;49.306;6.934;2023-06-04T04:41:55;3.33;;;1.10;;
22963;SDS011;11648;49.306;6.934;2023-06-04T04:44:22;2.27;;;1.00;;
22963;SDS011;11648;49.306;6.934;2023-06-04T04:46:49;3.50;;;0.90;;
22963;SDS011;11648;49.306;6.934;2023-06-04T04:49:16;5.20;;;1.10;;
22963;SDS011;11648;49.306;6.934;2023-06-04T04:51:43;3.30;;;1.10;;
22963;SDS011;11648;49.306;6.934;2023-06-04T04:54:10;1.90;;;0.90;;
22963;SDS011;11648;49.306;6.934;2023-06-04T04:56:37;2.03;;;0.80;;
22963;SDS011;11648;49.306;6.934;2023-06-04T04:59:04;3.03;;;0.90;;
22963;SDS011;11648;49.306;6.934;2023-06-04T05:01:31;6.27;;;0.93;;
22963;SDS011;11648;49.306;6.934;2023-06-04T05:03:59;2.37;;;0.90;;
22963;SDS011;11648;49.306;6.934;2023-06-04T05:06:28;2.93;;;1.10;;
22963;SDS011;11648;49.306;6.934;2023-06-04T05:08:56;4.83;;;1.17;;
22963;SDS011;11648;49.306;6.934;2023-06-04T05:11:22;1.70;;;0.83;;
22963;SDS011;11648;49.306;6.934;2023-06-04T05:13:49;2.50;;;1.37;;
22963;SDS011;11648;49.306;6.934;2023-06-04T05:16:16;2.37;;;1.10;;
22963;SDS011;11648;49.306;6.934;2023-06-04T05:18:47;2.93;;;0.90;;
22963;SDS011;11648;49.306;6.934;2023-06-04T05:21:18;3.50;;;1.00;;
22963;SDS011;11648;49.306;6.934;2023-06-04T05:23:56;3.10;;;1.00;;
22963;SDS011;11648;49.306;6.934;2023-06-04T05:26:26;3.13;;;0.90;;
22963;SDS011;11648;49.306;6.934;2023-06-04T05:28:58;3.43;;;0.97;;
22963;SDS011;11648;49.306;6.934;2023-06-04T05:31:29;3.87;;;1.00;;
22963;SDS011;11648;49.306;6.934;2023-06-04T05:33:58;2.03;;;0.90;;
22963;SDS011;11648;49.306;6.934;2023-06-04T05:36:29;4.13;;;1.20;;
22963;SDS011;11648;49.306;6.934;2023-06-04T05:38:58;4.23;;;1.10;;
22963;SDS011;11648;49.306;6.934;2023-06-04T05:41:40;3.63;;;1.10;;
22963;SDS011;11648;49.306;6.934;2023-06-04T05:44:08;3.97;;;1.13;;
22963;SDS011;11648;49.306;6.934;2023-06-04T05:46:35;4.73;;;1.00;;
22963;SDS011;11648;49.306;6.934;2023-06-04T05:49:02;2.27;;;1.07;;
22963;SDS011;11648;49.306;6.934;2023-06-04T05:51:29;3.40;;;1.00;;
22963;SDS011;11648;49.306;6.934;2023-06-04T05:53:56;1.80;;;0.90;;
22963;SDS011;11648;49.306;6.934;2023-06-04T05:56:23;1.83;;;0.90;;
22963;SDS011;11648;49.306;6.934;2023-06-04T05:58:53;3.90;;;1.00;;
22963;SDS011;11648;49.306;6.934;2023-06-04T06:01:22;3.50;;;1.20;;
22963;SDS011;11648;49.306;6.934;2023-06-04T06:03:50;4.70;;;0.90;;
22963;SDS011;11648;49.306;6.934;2023-06-04T06:06:19;3.50;;;1.10;;
22963;SDS011;11648;49.306;6.934;2023-06-04T06:08:47;2.53;;;1.10;;
22963;SDS011;11648;49.306;6.934;2023-06-04T06:11:14;2.27;;;1.10;;
22963;SDS011;11648;49.306;6.934;2023-06-04T06:13:42;3.70;;;1.10;;
22963;SDS011;11648;49.306;6.934;2023-06-04T06:16:09;2.57;;;1.00;;
22963;SDS011;11648;49.306;6.934;2023-06-04T06:18:37;2.40;;;1.00;;
22963;SDS011;11648;49.306;6.934;2023-06-04T06:21:04;2.83;;;1.13;;
22963;SDS011;11648;49.306;6.934;2023-06-04T06:23:31;3.87;;;1.03;;
22963;SDS011;11648;49.306;6.934;2023-06-04T06:25:59;1.80;;;0.80;;
22963;SDS011;11648;49.306;6.934;2023-06-04T06:28:30;3.20;;;1.10;;
22963;SDS011;11648;49.306;6.934;2023-06-04T06:30:58;2.77;;;1.00;;
22963;SDS011;11648;49.306;6.934;2023-06-04T06:33:25;4.40;;;0.90;;
22963;SDS011;11648;49.306;6.934;2023-06-04T06:35:52;3.17;;;1.10;;
22963;SDS011;11648;49.306;6.934;2023-06-04T06:38:18;3.50;;;1.00;;
22963;SDS011;11648;49.306;6.934;2023-06-04T06:40:45;1.90;;;1.00;;
22963;SDS011;11648;49.306;6.934;2023-06-04T06:43:12;3.40;;;1.17;;
22963;SDS011;11648;49.306;6.934;2023-06-04T06:45:39;2.60;;;1.13;;
22963;SDS011;11648;49.306;6.934;2023-06-04T06:48:06;3.93;;;1.20;;
22963;SDS011;11648;49.306;6.934;2023-06-04T06:50:33;3.23;;;0.97;;
22963;SDS011;11648;49.306;6.934;2023-06-04T06:53:02;2.10;;;0.90;;
22963;SDS011;11648;49.306;6.934;2023-06-04T06:55:29;5.57;;;0.90;;
22963;SDS011;11648;49.306;6.934;2023-06-04T06:57:56;3.00;;;1.17;;
22963;SDS011;11648;49.306;6.934;2023-06-04T07:00:23;6.30;;;1.20;;
22963;SDS011;11648;49.306;6.934;2023-06-04T07:02:50;3.17;;;1.00;;
22963;SDS011;11648;49.306;6.934;2023-06-04T07:05:17;3.53;;;1.10;;
22963;SDS011;11648;49.306;6.934;2023-06-04T07:07:44;4.70;;;1.10;;
22963;SDS011;11648;49.306;6.934;2023-06-04T07:10:12;4.73;;;2.20;;
22963;SDS011;11648;49.306;6.934;2023-06-04T07:12:40;4.00;;;1.40;;
22963;SDS011;11648;49.306;6.934;2023-06-04T07:15:09;4.17;;;1.70;;
22963;SDS011;11648;49.306;6.934;2023-06-04T07:17:36;3.87;;;1.80;;
22963;SDS011;11648;49.306;6.934;2023-06-04T07:20:03;2.93;;;1.80;;
22963;SDS011;11648;49.306;6.934;2023-06-04T07:22:33;3.33;;;2.13;;
22963;SDS011;11648;49.306;6.934;2023-06-04T07:25:01;3.10;;;1.30;;
22963;SDS011;11648;49.306;6.934;2023-06-04T07:27:28;5.50;;;1.60;;
22963;SDS011;11648;49.306;6.934;2023-06-04T07:29:54;4.03;;;1.30;;
22963;SDS011;11648;49.306;6.934;2023-06-04T07:32:21;6.70;;;1.67;;
22963;SDS011;11648;49.306;6.934;2023-06-04T07:34:48;2.43;;;1.17;;
22963;SDS011;11648;49.306;6.934;2023-06-04T07:37:15;3.23;;;1.40;;
22963;SDS011;11648;49.306;6.934;2023-06-04T07:39:42;4.60;;;1.60;;
22963;SDS011;11648;49.306;6.934;2023-06-04T07:42:09;3.93;;;1.40;;
22963;SDS011;11648;49.306;6.934;2023-06-04T07:44:36;4.13;;;1.43;;
22963;SDS011;11648;49.306;6.934;2023-06-04T07:47:04;5.63;;;1.33;;
22963;SDS011;11648;49.306;6.934;2023-06-04T07:49:31;4.33;;;1.20;;
22963;SDS011;11648;49.306;6.934;2023-06-04T07:51:58;4.37;;;1.70;;
22963;SDS011;11648;49.306;6.934;2023-06-04T07:54:25;3.17;;;1.40;;
22963;SDS011;11648;49.306;6.934;2023-06-04T07:56:52;3.37;;;1.13;;
22963;SDS011;11648;49.306;6.934;2023-06-04T07:59:22;3.37;;;1.30;;
22963;SDS011;11648;49.306;6.934;2023-06-04T08:01:50;4.30;;;1.30;;
22963;SDS011;11648;49.306;6.934;2023-06-04T08:04:18;3.33;;;1.27;;
22963;SDS011;11648;49.306;6.934;2023-06-04T08:06:45;3.90;;;1.30;;
22963;SDS011;11648;49.306;6.934;2023-06-04T08:09:13;2.93;;;1.33;;
22963;SDS011;11648;49.306;6.934;2023-06-04T08:11:40;4.03;;;1.40;;
22963;SDS011;11648;49.306;6.934;2023-06-04T08:14:10;2.97;;;1.40;;
22963;SDS011;11648;49.306;6.934;2023-06-04T08:16:37;4.30;;;1.53;;
22963;SDS011;11648;49.306;6.934;2023-06-04T08:19:18;2.47;;;1.17;;
22963;SDS011;11648;49.306;6.934;2023-06-04T08:21:59;3.20;;;1.73;;
22963;SDS011;11648;49.306;6.934;2023-06-04T08:24:46;2.40;;;1.17;;
22963;SDS011;11648;49.306;6.934;2023-06-04T08:27:33;4.00;;;1.23;;
22963;SDS011;11648;49.306;6.934;2023-06-04T08:30:05;3.77;;;1.20;;
22963;SDS011;11648;49.306;6.934;2023-06-04T08:32:52;2.10;;;1.23;;
22963;SDS011;11648;49.306;6.934;2023-06-04T08:35:21;2.90;;;1.20;;
22963;SDS011;11648;49.306;6.934;2023-06-04T08:37:48;4.53;;;1.20;;
22963;SDS011;11648;49.306;6.934;2023-06-04T08:40:14;2.53;;;1.30;;
22963;SDS011;11648;49.306;6.934;2023-06-04T08:42:42;3.42;;;1.33;;
22963;SDS011;11648;49.306;6.934;2023-06-04T08:45:13;3.95;;;1.25;;
22963;SDS011;11648;49.306;6.934;2023-06-04T08:47:43;2.33;;;1.30;;
22963;SDS011;11648;49.306;6.934;2023-06-04T08:50:15;2.63;;;1.23;;
22963;SDS011;11648;49.306;6.934;2023-06-04T08:52:43;3.65;;;1.30;;
22963;SDS011;11648;49.306;6.934;2023-06-04T08:55:11;4.10;;;1.17;;
22963;SDS011;11648;49.306;6.934;2023-06-04T08:57:41;2.72;;;1.33;;
22963;SDS011;11648;49.306;6.934;2023-06-04T09:00:08;2.55;;;1.50;;
22963;SDS011;11648;49.306;6.934;2023-06-04T09:02:35;2.67;;;1.30;;
22963;SDS011;11648;49.306;6.934;2023-06-04T09:05:06;4.15;;;1.77;;
22963;SDS011;11648;49.306;6.934;2023-06-04T09:07:37;7.35;;;1.50;;
22963;SDS011;11648;49.306;6.934;2023-06-04T09:10:07;4.30;;;1.30;;
22963;SDS011;11648;49.306;6.934;2023-06-04T09:12:42;3.63;;;1.40;;
22963;SDS011;11648;49.306;6.934;2023-06-04T09:15:13;2.90;;;1.40;;
22963;SDS011;11648;49.306;6.934;2023-06-04T09:17:40;2.65;;;1.40;;
22963;SDS011;11648;49.306;6.934;2023-06-04T09:20:07;3.90;;;1.42;;
22963;SDS011;11648;49.306;6.934;2023-06-04T09:22:37;3.78;;;1.70;;
22963;SDS011;11648;49.306;6.934;2023-06-04T09:25:05;2.85;;;1.60;;
22963;SDS011;11648;49.306;6.934;2023-06-04T09:27:39;3.53;;;1.67;;
22963;SDS011;11648;49.306;6.934;2023-06-04T09:30:07;4.80;;;1.73;;
22963;SDS011;11648;49.306;6.934;2023-06-04T09:32:36;5.95;;;1.70;;
22963;SDS011;11648;49.306;6.934;2023-06-04T09:37:36;8.00;;;1.83;;
22963;SDS011;11648;49.306;6.934;2023-06-04T09:40:03;2.65;;;1.48;;
22963;SDS011;11648;49.306;6.934;2023-06-04T09:42:44;4.22;;;1.60;;
22963;SDS011;11648;49.306;6.934;2023-06-04T09:45:11;4.75;;;1.60;;
22963;SDS011;11648;49.306;6.934;2023-06-04T09:47:42;5.07;;;1.83;;
22963;SDS011;11648;49.306;6.934;2023-06-04T09:50:12;3.15;;;1.50;;
22963;SDS011;11648;49.306;6.934;2023-06-04T09:52:39;2.35;;;1.40;;
22963;SDS011;11648;49.306;6.934;2023-06-04T09:55:19;3.30;;;1.52;;
22963;SDS011;11648;49.306;6.934;2023-06-04T09:57:49;4.30;;;1.60;;
22963;SDS011;11648;49.306;6.934;2023-06-04T10:00:17;4.15;;;1.60;;
22963;SDS011;11648;49.306;6.934;2023-06-04T10:02:49;5.35;;;1.63;;
22963;SDS011;11648;49.306;6.934;2023-06-04T10:05:20;5.68;;;1.40;;
22963;SDS011;11648;49.306;6.934;2023-06-04T10:07:49;6.15;;;1.45;;
22963;SDS011;11648;49.306;6.934;2023-06-04T10:10:25;6.60;;;1.60;;
22963;SDS011;11648;49.306;6.934;2023-06-04T10:13:04;4.05;;;1.75;;
22963;SDS011;11648;49.306;6.934;2023-06-04T10:15:36;3.28;;;1.58;;
22963;SDS011;11648;49.306;6.934;2023-06-04T10:18:04;3.17;;;1.40;;
22963;SDS011;11648;49.306;6.934;2023-06-04T10:20:32;3.28;;;1.40;;
22963;SDS011;11648;49.306;6.934;2023-06-04T10:23:00;3.22;;;1.40;;
22963;SDS011;11648;49.306;6.934;2023-06-04T10:25:27;3.55;;;1.50;;
22963;SDS011;11648;49.306;6.934;2023-06-04T10:27:54;2.85;;;1.30;;
22963;SDS011;11648;49.306;6.934;2023-06-04T10:30:22;3.80;;;1.60;;
22963;SDS011;11648;49.306;6.934;2023-06-04T10:32:49;4.68;;;1.75;;
22963;SDS011;11648;49.306;6.934;2023-06-04T10:35:16;3.05;;;1.50;;
22963;SDS011;11648;49.306;6.934;2023-06-04T10:37:43;4.38;;;1.50;;
22963;SDS011;11648;49.306;6.934;2023-06-04T10:40:10;3.78;;;1.80;;
22963;SDS011;11648;49.306;6.934;2023-06-04T10:42:38;3.47;;;1.60;;
22963;SDS011;11648;49.306;6.934;2023-06-04T10:45:07;2.17;;;1.42;;
22963;SDS011;11648;49.306;6.934;2023-06-04T10:47:36;3.72;;;1.80;;
22963;SDS011;11648;49.306;6.934;2023-06-04T10:50:08;3.53;;;1.60;;
22963;SDS011;11648;49.306;6.934;2023-06-04T10:52:37;4.95;;;1.98;;
22963;SDS011;11648;49.306;6.934;2023-06-04T10:55:16;5.57;;;1.70;;
22963;SDS011;11648;49.306;6.934;2023-06-04T10:57:59;3.20;;;1.73;;
22963;SDS011;11648;49.306;6.934;2023-06-04T11:00:37;3.80;;;1.55;;
22963;SDS011;11648;49.306;6.934;2023-06-04T11:03:05;2.78;;;1.45;;
22963;SDS011;11648;49.306;6.934;2023-06-04T11:05:36;4.15;;;1.52;;
22963;SDS011;11648;49.306;6.934;2023-06-04T11:08:04;5.03;;;1.50;;
22963;SDS011;11648;49.306;6.934;2023-06-04T11:10:38;2.15;;;1.30;;
22963;SDS011;11648;49.306;6.934;2023-06-04T11:13:06;6.88;;;1.80;;
22963;SDS011;11648;49.306;6.934;2023-06-04T11:15:40;3.25;;;1.60;;
22963;SDS011;11648;49.306;6.934;2023-06-04T11:18:13;3.38;;;1.80;;
22963;SDS011;11648;49.306;6.934;2023-06-04T11:20:44;3.17;;;1.67;;
22963;SDS011;11648;49.306;6.934;2023-06-04T11:23:13;2.70;;;1.38;;
22963;SDS011;11648;49.306;6.934;2023-06-04T11:25:41;3.97;;;1.67;;
22963;SDS011;11648;49.306;6.934;2023-06-04T11:28:16;2.25;;;1.52;;
22963;SDS011;11648;49.306;6.934;2023-06-04T11:31:01;3.70;;;1.80;;
22963;SDS011;11648;49.306;6.934;2023-06-04T11:33:30;6.93;;;1.80;;
22963;SDS011;11648;49.306;6.934;2023-06-04T11:35:57;4.03;;;1.70;;
22963;SDS011;11648;49.306;6.934;2023-06-04T11:38:24;3.42;;;1.80;;
22963;SDS011;11648;49.306;6.934;2023-06-04T11:40:55;3.78;;;1.40;;
22963;SDS011;11648;49.306;6.934;2023-06-04T11:43:23;2.92;;;1.60;;
22963;SDS011;11648;49.306;6.934;2023-06-04T11:45:50;8.20;;;1.73;;
22963;SDS011;11648;49.306;6.934;2023-06-04T11:48:17;3.15;;;1.83;;
22963;SDS011;11648;49.306;6.934;2023-06-04T11:50:44;3.47;;;1.80;;
22963;SDS011;11648;49.306;6.934;2023-06-04T11:53:11;3.80;;;1.60;;
22963;SDS011;11648;49.306;6.934;2023-06-04T11:55:38;3.15;;;1.73;;
22963;SDS011;11648;49.306;6.934;2023-06-04T11:58:05;4.72;;;1.85;;
22963;SDS011;11648;49.306;6.934;2023-06-04T12:00:32;2.50;;;1.67;;
22963;SDS011;11648;49.306;6.934;2023-06-04T12:02:59;4.32;;;1.80;;
22963;SDS011;11648;49.306;6.934;2023-06-04T12:05:30;4.63;;;2.00;;
22963;SDS011;11648;49.306;6.934;2023-06-04T12:08:10;3.13;;;2.03;;
22963;SDS011;11648;49.306;6.934;2023-06-04T12:10:38;4.20;;;2.00;;
22963;SDS011;11648;49.306;6.934;2023-06-04T12:13:05;4.22;;;1.85;;
22963;SDS011;11648;49.306;6.934;2023-06-04T12:15:32;3.97;;;1.80;;
22963;SDS011;11648;49.306;6.934;2023-06-04T12:17:59;3.95;;;2.00;;
22963;SDS011;11648;49.306;6.934;2023-06-04T12:20:36;3.22;;;1.95;;
22963;SDS011;11648;49.306;6.934;2023-06-04T12:23:08;3.58;;;1.88;;
22963;SDS011;11648;49.306;6.934;2023-06-04T12:25:49;5.55;;;2.20;;
22963;SDS011;11648;49.306;6.934;2023-06-04T12:28:17;5.10;;;2.10;;
22963;SDS011;11648;49.306;6.934;2023-06-04T12:30:44;4.80;;;2.20;;
22963;SDS011;11648;49.306;6.934;2023-06-04T12:33:11;5.50;;;1.80;;
22963;SDS011;11648;49.306;6.934;2023-06-04T12:35:38;4.13;;;2.08;;
22963;SDS011;11648;49.306;6.934;2023-06-04T12:38:05;4.07;;;1.80;;
22963;SDS011;11648;49.306;6.934;2023-06-04T12:40:35;4.65;;;1.83;;
22963;SDS011;11648;49.306;6.934;2023-06-04T12:43:02;3.70;;;1.80;;
22963;SDS011;11648;49.306;6.934;2023-06-04T12:45:28;5.07;;;1.90;;
22963;SDS011;11648;49.306;6.934;2023-06-04T12:47:55;3.00;;;1.65;;
22963;SDS011;11648;49.306;6.934;2023-06-04T12:50:22;4.20;;;1.88;;
22963;SDS011;11648;49.306;6.934;2023-06-04T12:52:49;3.72;;;2.00;;
22963;SDS011;11648;49.306;6.934;2023-06-04T12:55:16;6.25;;;2.03;;
22963;SDS011;11648;49.306;6.934;2023-06-04T12:57:43;3.97;;;1.80;;
22963;SDS011;11648;49.306;6.934;2023-06-04T13:00:11;4.35;;;1.70;;
22963;SDS011;11648;49.306;6.934;2023-06-04T13:02:38;4.88;;;2.00;;
22963;SDS011;11648;49.306;6.934;2023-06-04T13:05:05;4.22;;;1.95;;
22963;SDS011;11648;49.306;6.934;2023-06-04T13:07:32;6.47;;;2.20;;
22963;SDS011;11648;49.306;6.934;2023-06-04T13:09:59;4.57;;;2.00;;
22963;SDS011;11648;49.306;6.934;2023-06-04T13:12:27;3.30;;;1.92;;
22963;SDS011;11648;49.306;6.934;2023-06-04T13:14:54;5.32;;;1.90;;
22963;SDS011;11648;49.306;6.934;2023-06-04T13:17:22;4.22;;;2.10;;
22963;SDS011;11648;49.306;6.934;2023-06-04T13:19:49;3.72;;;2.45;;
22963;SDS011;11648;49.306;6.934;2023-06-04T13:22:16;5.15;;;1.90;;
22963;SDS011;11648;49.306;6.934;2023-06-04T13:24:43;5.53;;;2.00;;
22963;SDS011;11648;49.306;6.934;2023-06-04T13:27:10;6.50;;;2.58;;
22963;SDS011;11648;49.306;6.934;2023-06-04T13:29:37;3.38;;;1.90;;
22963;SDS011;11648;49.306;6.934;2023-06-04T13:32:03;4.05;;;1.88;;
22963;SDS011;11648;49.306;6.934;2023-06-04T13:34:31;5.13;;;2.00;;
22963;SDS011;11648;49.306;6.934;2023-06-04T13:36:58;4.60;;;1.98;;
22963;SDS011;11648;49.306;6.934;2023-06-04T13:39:25;4.57;;;2.00;;
22963;SDS011;11648;49.306;6.934;2023-06-04T13:41:52;3.30;;;2.25;;
22963;SDS011;11648;49.306;6.934;2023-06-04T13:44:20;3.83;;;2.08;;
22963;SDS011;11648;49.306;6.934;2023-06-04T13:46:52;6.75;;;2.30;;
22963;SDS011;11648;49.306;6.934;2023-06-04T13:49:20;5.75;;;2.53;;
22963;SDS011;11648;49.306;6.934;2023-06-04T13:51:47;4.75;;;2.08;;
22963;SDS011;11648;49.306;6.934;2023-06-04T13:54:13;4.55;;;2.38;;
22963;SDS011;11648;49.306;6.934;2023-06-04T13:56:40;3.83;;;2.28;;
22963;SDS011;11648;49.306;6.934;2023-06-04T13:59:08;4.97;;;2.30;;
22963;SDS011;11648;49.306;6.934;2023-06-04T14:01:34;4.53;;;2.22;;
22963;SDS011;11648;49.306;6.934;2023-06-04T14:04:01;5.35;;;2.75;;
22963;SDS011;11648;49.306;6.934;2023-06-04T14:06:32;4.72;;;2.50;;
22963;SDS011;11648;49.306;6.934;2023-06-04T14:08:59;7.00;;;2.70;;
22963;SDS011;11648;49.306;6.934;2023-06-04T14:11:26;4.10;;;2.20;;
22963;SDS011;11648;49.306;6.934;2023-06-04T14:13:53;4.72;;;2.45;;
22963;SDS011;11648;49.306;6.934;2023-06-04T14:16:19;3.88;;;2.50;;
22963;SDS011;11648;49.306;6.934;2023-06-04T14:18:46;3.50;;;2.30;;
22963;SDS011;11648;49.306;6.934;2023-06-04T14:21:13;5.70;;;2.70;;
22963;SDS011;11648;49.306;6.934;2023-06-04T14:23:40;3.47;;;2.17;;
22963;SDS011;11648;49.306;6.934;2023-06-04T14:26:07;4.80;;;2.53;;
22963;SDS011;11648;49.306;6.934;2023-06-04T14:28:34;4.20;;;2.60;;
22963;SDS011;11648;49.306;6.934;2023-06-04T14:31:01;6.45;;;2.67;;
22963;SDS011;11648;49.306;6.934;2023-06-04T14:33:28;3.60;;;2.33;;
22963;SDS011;11648;49.306;6.934;2023-06-04T14:35:55;5.65;;;2.60;;
22963;SDS011;11648;49.306;6.934;2023-06-04T14:38:21;5.00;;;2.47;;
22963;SDS011;11648;49.306;6.934;2023-06-04T14:40:48;3.08;;;2.30;;
22963;SDS011;11648;49.306;6.934;2023-06-04T14:43:15;5.22;;;2.33;;
22963;SDS011;11648;49.306;6.934;2023-06-04T14:45:42;6.82;;;2.10;;
22963;SDS011;11648;49.306;6.934;2023-06-04T14:48:09;3.88;;;2.15;;
22963;SDS011;11648;49.306;6.934;2023-06-04T14:50:42;4.50;;;2.35;;
22963;SDS011;11648;49.306;6.934;2023-06-04T14:53:10;3.75;;;2.10;;
22963;SDS011;11648;49.306;6.934;2023-06-04T14:55:37;3.58;;;2.38;;
22963;SDS011;11648;49.306;6.934;2023-06-04T14:58:04;4.38;;;2.65;;
22963;SDS011;11648;49.306;6.934;2023-06-04T15:00:31;4.70;;;2.50;;
22963;SDS011;11648;49.306;6.934;2023-06-04T15:02:58;3.63;;;1.90;;